createdAt,value
2022-12-12T00:01:02.927Z,11.53
2022-12-12T00:06:26.484Z,12.27
2022-12-12T00:11:49.799Z,12.23
2022-12-12T00:17:11.457Z,11.27
2022-12-12T00:22:33.765Z,12.10
2022-12-12T00:27:57.185Z,11.97
2022-12-12T00:33:19.598Z,11.90
2022-12-12T00:38:42.274Z,11.53
2022-12-12T00:44:05.390Z,11.10
2022-12-12T00:49:27.240Z,11.97
2022-12-12T00:54:49.033Z,11.70
2022-12-12T01:00:16.578Z,12.13
2022-12-12T01:05:38.190Z,11.70
2022-12-12T01:11:00.187Z,11.97
2022-12-12T01:16:25.049Z,12.17
2022-12-12T01:21:46.653Z,12.10
2022-12-12T01:27:08.668Z,12.07
2022-12-12T01:32:32.109Z,12.87
2022-12-12T01:37:54.450Z,11.13
2022-12-12T01:43:18.838Z,11.50
2022-12-12T01:48:47.072Z,11.73
2022-12-12T01:54:11.579Z,12.00
2022-12-12T01:59:36.103Z,11.90
2022-12-12T02:05:02.949Z,11.93
2022-12-12T02:10:25.213Z,11.67
2022-12-12T02:15:59.341Z,11.87
2022-12-12T02:21:27.437Z,12.60
2022-12-12T02:27:18.307Z,11.97
2022-12-12T02:32:53.215Z,11.20
2022-12-12T02:38:27.114Z,11.63
2022-12-12T02:44:00.981Z,11.53
2022-12-12T02:49:30.957Z,11.87
2022-12-12T02:54:52.499Z,13.07
2022-12-12T03:00:17.956Z,12.13
2022-12-12T03:06:05.573Z,12.07
2022-12-12T03:11:41.698Z,12.13
2022-12-12T03:17:11.566Z,12.10
2022-12-12T03:22:44.912Z,12.30
2022-12-12T03:28:11.562Z,12.43
2022-12-12T03:33:37.268Z,12.37
2022-12-12T03:39:06.256Z,12.03
2022-12-12T03:44:38.171Z,12.03
2022-12-12T03:50:07.597Z,11.50
2022-12-12T03:55:38.621Z,12.23
2022-12-12T04:01:04.578Z,11.93
2022-12-12T04:06:35.139Z,12.00
2022-12-12T04:12:23.314Z,11.97
2022-12-12T04:17:50.863Z,11.67
2022-12-12T04:23:26.144Z,11.53
2022-12-12T04:28:55.664Z,12.43
2022-12-12T04:34:25.295Z,11.10
2022-12-12T04:39:50.941Z,12.43
2022-12-12T04:45:17.669Z,12.37
2022-12-12T04:50:40.560Z,11.47
2022-12-12T04:56:08.652Z,10.87
2022-12-12T05:01:39.162Z,11.77
2022-12-12T05:07:06.365Z,11.93
2022-12-12T05:12:28.618Z,11.00
2022-12-12T05:17:57.840Z,10.40
2022-12-12T05:23:19.793Z,11.40
2022-12-12T05:28:41.785Z,10.30
2022-12-12T05:34:05.053Z,10.50
2022-12-12T05:39:26.765Z,11.47
2022-12-12T05:44:48.404Z,9.77
2022-12-12T05:50:12.038Z,11.03
2022-12-12T05:55:33.935Z,11.03
2022-12-12T06:01:01.630Z,10.77
2022-12-12T06:06:26.790Z,9.73
2022-12-12T06:11:48.648Z,9.60
2022-12-12T06:17:10.330Z,10.60
2022-12-12T06:22:33.453Z,10.03
2022-12-12T06:27:55.350Z,10.10
2022-12-12T06:33:17.196Z,10.27
2022-12-12T06:38:41.117Z,9.63
2022-12-12T06:44:03.042Z,11.17
2022-12-12T06:49:25.019Z,10.50
2022-12-12T06:54:48.884Z,10.63
2022-12-12T07:00:11.855Z,9.70
2022-12-12T07:05:33.744Z,10.40
2022-12-12T07:10:58.528Z,10.07
2022-12-12T07:16:21.056Z,10.33
2022-12-12T07:21:42.669Z,10.40
2022-12-12T07:27:06.620Z,12.47
2022-12-12T07:32:28.985Z,12.90
2022-12-12T07:37:50.978Z,13.70
2022-12-12T07:43:14.192Z,13.53
2022-12-12T07:48:36.472Z,12.30
2022-12-12T07:53:58.143Z,13.20
2022-12-12T07:59:21.788Z,12.97
2022-12-12T08:04:43.961Z,13.30
2022-12-12T08:10:07.052Z,14.43
2022-12-12T08:15:30.505Z,15.13
2022-12-12T08:20:52.331Z,14.27
2022-12-12T08:26:18.297Z,14.67
2022-12-12T08:31:41.994Z,13.90
2022-12-12T08:37:03.953Z,14.27
2022-12-12T08:42:25.791Z,13.90
2022-12-12T08:47:49.087Z,13.23
2022-12-12T08:53:11.056Z,12.33
2022-12-12T08:58:33.067Z,13.40
2022-12-12T09:03:58.103Z,13.07
2022-12-12T09:09:20.042Z,14.53
2022-12-12T09:14:41.972Z,15.20
2022-12-12T09:20:05.860Z,15.03
2022-12-12T09:25:28.314Z,13.80
2022-12-12T09:30:50.525Z,12.77
2022-12-12T09:36:15.167Z,12.53
2022-12-12T09:41:37.187Z,11.63
2022-12-12T09:47:03.796Z,11.93
2022-12-12T09:52:32.341Z,12.77
2022-12-12T09:58:00.339Z,11.63
2022-12-12T10:03:15.272Z,11.60
2022-12-12T10:08:29.947Z,10.97
2022-12-12T10:13:35.242Z,11.40
2022-12-12T10:18:43.389Z,11.70
2022-12-12T10:23:53.669Z,11.53
2022-12-12T10:29:11.217Z,11.53
2022-12-12T10:34:27.964Z,10.17
2022-12-12T10:39:42.305Z,10.03
2022-12-12T10:45:16.521Z,9.50
2022-12-12T10:50:27.509Z,10.20
2022-12-12T10:55:40.313Z,10.30
2022-12-12T11:00:45.808Z,9.77
2022-12-12T11:05:49.849Z,10.47
2022-12-12T11:11:08.296Z,11.00
2022-12-12T11:16:17.601Z,10.10
2022-12-12T11:21:22.060Z,10.17
2022-12-12T11:26:29.805Z,10.53
2022-12-12T11:31:36.879Z,11.93
2022-12-12T11:36:42.772Z,10.90
2022-12-12T11:42:02.012Z,10.90
2022-12-12T11:47:25.730Z,10.43
2022-12-12T11:52:31.502Z,10.70
2022-12-12T11:58:03.285Z,13.67
2022-12-12T12:03:24.044Z,11.50
2022-12-12T12:08:40.879Z,12.97
2022-12-12T12:14:05.055Z,11.37
2022-12-12T12:19:15.528Z,11.63
2022-12-12T12:24:49.867Z,12.50
2022-12-12T12:30:13.472Z,13.50
2022-12-12T12:35:29.784Z,12.83
2022-12-12T12:40:51.426Z,12.00
2022-12-12T12:46:02.834Z,12.87
2022-12-12T12:51:13.070Z,13.23
2022-12-12T12:56:26.464Z,13.40
2022-12-12T13:01:35.834Z,12.30
2022-12-12T13:06:45.514Z,11.93
2022-12-12T13:11:52.460Z,11.50
2022-12-12T13:17:00.543Z,10.53
2022-12-12T13:22:09.210Z,11.50
2022-12-12T13:27:20.785Z,11.17
2022-12-12T13:32:49.941Z,12.00
2022-12-12T13:37:55.363Z,12.97
2022-12-12T13:43:08.722Z,12.90
2022-12-12T13:48:48.305Z,13.13
2022-12-12T13:54:30.407Z,14.30
2022-12-12T13:59:33.854Z,12.30
2022-12-12T14:04:39.657Z,13.73
2022-12-12T14:09:49.364Z,13.93
2022-12-12T14:14:57.243Z,13.67
2022-12-12T14:20:01.390Z,13.10
2022-12-12T14:25:09.664Z,11.67
2022-12-12T14:30:18.933Z,12.67
2022-12-12T14:35:33.378Z,13.20
2022-12-12T14:40:41.609Z,13.13
2022-12-12T14:45:55.968Z,13.87
2022-12-12T14:51:04.572Z,13.10
2022-12-12T14:56:13.364Z,13.40
2022-12-12T15:01:27.838Z,15.13
2022-12-12T15:06:34.549Z,14.20
2022-12-12T15:11:39.784Z,14.53
2022-12-12T15:16:48.631Z,13.93
2022-12-12T15:21:52.810Z,13.33
2022-12-12T15:26:59.716Z,13.97
2022-12-12T15:32:05.327Z,14.83
2022-12-12T15:37:28.241Z,14.63
2022-12-12T15:42:33.320Z,13.97
2022-12-12T15:47:36.975Z,12.77
2022-12-12T15:52:40.331Z,13.37
2022-12-12T15:57:49.848Z,12.63
2022-12-12T16:03:03.288Z,13.40
2022-12-12T16:08:38.878Z,13.07
2022-12-12T16:13:45.186Z,11.97
2022-12-12T16:18:48.503Z,12.03
2022-12-12T16:23:51.752Z,12.17
2022-12-12T16:28:56.260Z,12.13
2022-12-12T16:34:03.630Z,13.37
2022-12-12T16:39:08.501Z,13.77
2022-12-12T16:44:13.275Z,12.80
2022-12-12T16:49:16.663Z,13.63
2022-12-12T16:54:20.279Z,12.83
2022-12-12T16:59:25.182Z,13.30
2022-12-12T17:04:29.118Z,12.60
2022-12-12T17:09:32.527Z,12.13
2022-12-12T17:14:37.620Z,13.13
2022-12-12T17:19:40.961Z,12.13
2022-12-12T17:24:44.419Z,11.60
2022-12-12T17:29:49.300Z,11.03
2022-12-12T17:34:52.811Z,11.73
2022-12-12T17:39:56.159Z,12.40
2022-12-12T17:45:01.700Z,11.93
2022-12-12T17:50:08.095Z,11.30
2022-12-12T17:55:53.711Z,11.20
2022-12-12T18:01:01.224Z,11.63
2022-12-12T18:06:09.749Z,13.00
2022-12-12T18:11:22.044Z,11.90
2022-12-12T18:16:39.832Z,11.60
2022-12-12T18:22:01.185Z,11.80
2022-12-12T18:27:09.156Z,11.87
2022-12-12T18:32:27.623Z,11.60
2022-12-12T18:43:21.716Z,11.57
2022-12-12T18:48:36.026Z,11.80
2022-12-12T18:53:46.321Z,13.07
2022-12-12T18:58:59.134Z,12.47
2022-12-12T19:04:23.952Z,13.03
2022-12-12T19:09:35.518Z,12.73
2022-12-12T19:20:24.573Z,12.67
2022-12-12T19:25:37.600Z,13.37
2022-12-12T19:30:46.493Z,13.97
2022-12-12T19:35:55.311Z,13.40
2022-12-12T19:41:10.896Z,12.27
2022-12-12T19:46:22.621Z,13.43
2022-12-12T19:51:38.264Z,12.70
2022-12-12T19:56:50.137Z,12.80
2022-12-12T20:01:58.682Z,12.73
2022-12-12T20:07:13.684Z,12.50
2022-12-12T20:12:23.879Z,12.80
2022-12-12T20:17:31.318Z,11.87
2022-12-12T20:22:39.278Z,12.47
2022-12-12T20:28:03.709Z,11.43
2022-12-12T20:33:14.309Z,10.83
2022-12-12T20:38:28.182Z,12.07
2022-12-12T20:43:37.715Z,12.13
2022-12-12T20:49:09.632Z,12.03
2022-12-12T20:54:34.450Z,10.90
2022-12-12T20:59:41.011Z,10.97
2022-12-12T21:04:50.767Z,11.37
2022-12-12T21:10:07.775Z,11.47
2022-12-12T21:15:18.077Z,11.83
2022-12-12T21:20:23.485Z,9.03
2022-12-12T21:25:58.080Z,8.00
2022-12-12T21:36:35.511Z,6.53
2022-12-12T21:41:57.323Z,6.90
2022-12-12T21:47:03.411Z,9.40
2022-12-12T21:52:15.382Z,10.83
2022-12-12T21:57:32.221Z,10.03
2022-12-12T22:02:39.020Z,11.37
2022-12-12T22:07:49.133Z,12.27
2022-12-12T22:13:13.667Z,12.00
2022-12-12T22:18:30.033Z,11.57
2022-12-12T22:23:44.065Z,11.77
2022-12-12T22:29:01.561Z,11.73
2022-12-12T22:34:09.591Z,11.40
2022-12-12T22:39:18.275Z,11.50
2022-12-12T22:44:27.535Z,14.57
2022-12-12T22:49:42.828Z,12.37
2022-12-12T22:54:48.035Z,14.13
2022-12-12T23:00:01.237Z,13.67
2022-12-12T23:05:19.936Z,14.07
2022-12-12T23:10:36.221Z,14.53
2022-12-12T23:16:03.185Z,14.63
2022-12-12T23:21:17.224Z,14.50
2022-12-12T23:26:47.482Z,15.47
2022-12-12T23:32:00.202Z,14.73
2022-12-12T23:37:17.989Z,13.80
2022-12-12T23:42:24.577Z,14.33
2022-12-12T23:47:53.660Z,13.30
2022-12-12T23:53:07.573Z,13.03
2022-12-12T23:58:23.550Z,12.80
